Time;durP1;ratioP1;P1;durP2;ratioP2;P2;SDS_P1;SDS_P2;PMS_P1;PMS_P2;Temp;Humidity;BMP_temperature;BMP_pressure;BME280_temperature;BME280_humidity;BME280_pressure;Samples;Min_cycle;Max_cycle;Signal;HPM_P1;HPM_P2
2021/12/08 00:00:36;;;;;;;5.63;3.37;;;;;;;13.13;54.82;99110.22;5037459;28;20028;-70
2021/12/08 00:03:04;;;;;;;5.23;2.70;;;;;;;11.34;61.58;99111.91;5041634;28;20095;-70
2021/12/08 00:05:30;;;;;;;9.77;3.20;;;;;;;11.33;64.91;99128.53;5038660;28;20096;-70
2021/12/08 00:07:56;;;;;;;6.43;2.73;;;;;;;11.99;63.27;99118.84;5035732;28;20468;-71
2021/12/08 00:13:07;;;;;;;4.90;2.50;;;;;;;11.81;62.74;99108.22;5040178;28;20033;-70
2021/12/08 00:15:47;;;;;;;5.80;2.67;;;;;;;11.73;67.38;99114.69;5040754;28;20377;-70
2021/12/08 00:18:17;;;;;;;7.47;2.73;;;;;;;11.27;67.74;99107.84;5038343;28;20028;-71
2021/12/08 00:20:48;;;;;;;5.30;2.53;;;;;;;12.09;64.57;99095.72;5037456;28;20501;-70
2021/12/08 00:23:15;;;;;;;4.53;2.70;;;;;;;12.50;62.38;99086.03;5036282;28;20026;-70
2021/12/08 00:25:42;;;;;;;7.30;3.50;;;;;;;11.80;63.77;99088.22;5040659;28;20056;-70
2021/12/08 00:28:08;;;;;;;4.67;3.53;;;;;;;11.66;64.23;99088.81;5039307;28;21009;-71
2021/12/08 00:30:35;;;;;;;7.33;3.40;;;;;;;13.79;54.71;99087.78;5036931;28;20140;-70
2021/12/08 00:33:01;;;;;;;6.70;3.27;;;;;;;13.10;53.91;99094.66;5041232;28;20086;-70
2021/12/08 00:35:28;;;;;;;7.90;3.37;;;;;;;11.68;64.62;99102.66;5044299;28;20051;-71
2021/12/08 00:37:54;;;;;;;7.20;3.93;;;;;;;12.58;61.87;99106.63;5037825;28;20029;-71
2021/12/08 00:40:21;;;;;;;5.40;3.90;;;;;;;11.60;67.05;99104.75;5039356;28;20068;-70
2021/12/08 00:42:47;;;;;;;8.17;5.13;;;;;;;13.23;61.64;99098.38;5040695;28;20025;-70
2021/12/08 00:45:15;;;;;;;7.03;4.13;;;;;;;12.97;56.43;99089.97;5036873;28;20028;-70
2021/12/08 00:47:41;;;;;;;9.53;4.63;;;;;;;12.36;60.58;99099.78;5036407;28;20493;-71
2021/12/08 00:50:10;;;;;;;6.80;4.73;;;;;;;12.22;63.44;99102.97;5038895;28;20037;-70
2021/12/08 00:52:36;;;;;;;10.07;4.80;;;;;;;13.28;60.31;99104.22;5042368;28;20075;-70
2021/12/08 00:55:06;;;;;;;5.80;4.00;;;;;;;14.02;54.08;99116.34;5038697;28;20030;-71
2021/12/08 00:57:31;;;;;;;7.47;4.23;;;;;;;13.37;55.44;99124.81;5039984;28;20013;-71
2021/12/08 00:59:57;;;;;;;9.67;4.23;;;;;;;12.82;62.18;99132.66;5036694;28;20462;-71
2021/12/08 01:02:22;;;;;;;6.40;3.93;;;;;;;14.62;53.23;99140.41;5040650;28;20116;-70
2021/12/08 01:04:47;;;;;;;9.00;4.23;;;;;;;13.62;53.54;99128.84;5038945;28;20049;-71
2021/12/08 01:07:13;;;;;;;4.93;3.47;;;;;;;13.04;58.49;99133.34;5040504;28;20060;-70
2021/12/08 01:09:38;;;;;;;6.47;4.27;;;;;;;12.29;63.12;99140.25;5038659;28;20095;-70
2021/12/08 01:12:06;;;;;;;6.00;3.93;;;;;;;12.88;60.73;99148.09;5036215;28;20036;-70
2021/12/08 01:14:34;;;;;;;9.57;3.60;;;;;;;12.43;61.79;99144.03;5038838;28;20102;-70
2021/12/08 01:17:01;;;;;;;9.70;4.30;;;;;;;12.56;60.88;99142.56;5039672;28;20079;-71
2021/12/08 01:19:27;;;;;;;10.27;3.77;;;;;;;11.94;64.33;99145.25;5036191;28;20056;-71
2021/12/08 01:21:53;;;;;;;5.70;3.63;;;;;;;13.03;61.23;99142.13;5039286;28;20071;-71
2021/12/08 01:24:18;;;;;;;8.00;3.93;;;;;;;14.49;54.37;99156.81;5039653;28;20025;-71
2021/12/08 01:26:44;;;;;;;10.13;4.30;;;;;;;13.82;53.71;99150.63;5041368;28;20541;-71
2021/12/08 01:29:10;;;;;;;7.00;4.40;;;;;;;14.97;50.23;99167.44;5040004;28;20021;-71
2021/12/08 01:31:40;;;;;;;11.67;4.83;;;;;;;14.59;51.98;99173.00;5036957;28;20400;-71
2021/12/08 01:34:06;;;;;;;7.87;4.27;;;;;;;13.18;54.36;99168.59;5049456;28;20017;-71
2021/12/08 01:36:31;;;;;;;11.13;4.73;;;;;;;12.41;63.53;99174.69;5032233;28;20441;-71
2021/12/08 01:38:56;;;;;;;9.40;3.50;;;;;;;12.68;60.39;99173.47;5031986;28;20496;-70
2021/12/08 01:41:23;;;;;;;8.13;4.33;;;;;;;13.35;58.67;99163.41;5039834;28;20033;-71
2021/12/08 01:46:33;;;;;;;11.47;3.53;;;;;;;12.21;62.30;99163.31;5064835;28;20166;-71
2021/12/08 01:49:01;;;;;;;10.80;3.70;;;;;;;12.77;60.97;99164.31;5051911;28;20048;-71
2021/12/08 01:51:27;;;;;;;9.10;4.10;;;;;;;13.84;58.15;99161.94;5035448;28;20052;-71
2021/12/08 01:53:55;;;;;;;8.97;4.27;;;;;;;15.73;49.28;99172.00;5052970;28;20460;-71
2021/12/08 01:56:24;;;;;;;11.03;4.30;;;;;;;14.82;50.16;99178.81;5053496;28;20035;-71
2021/12/08 01:58:50;;;;;;;13.83;5.83;;;;;;;14.53;51.14;99183.81;5037570;28;20385;-71
2021/12/08 02:01:17;;;;;;;10.07;4.47;;;;;;;14.74;51.23;99192.38;5035299;28;20017;-71
2021/12/08 02:03:43;;;;;;;11.87;3.97;;;;;;;14.49;51.95;99187.53;5035341;28;20083;-71
2021/12/08 02:06:11;;;;;;;10.83;4.50;;;;;;;14.22;52.06;99194.13;5035207;28;20494;-71
2021/12/08 02:08:37;;;;;;;10.47;4.03;;;;;;;14.34;51.88;99197.94;5053620;28;20496;-71
2021/12/08 02:11:04;;;;;;;16.30;4.77;;;;;;;14.56;51.73;99191.53;5047347;28;20028;-71
2021/12/08 02:13:36;;;;;;;14.67;4.90;;;;;;;14.50;51.97;99194.50;5053439;28;20021;-71
2021/12/08 02:16:07;;;;;;;10.82;5.30;;;;;;;15.34;48.59;99202.25;5053972;28;20029;-71
2021/12/08 02:18:34;;;;;;;10.30;4.73;;;;;;;14.25;52.95;99206.28;5054288;28;20027;-71
2021/12/08 02:21:03;;;;;;;10.73;3.73;;;;;;;13.91;53.45;99207.97;5059987;28;20049;-70
2021/12/08 02:23:30;;;;;;;12.80;4.07;;;;;;;13.04;58.58;99209.41;5065220;28;20488;-70
2021/12/08 02:25:57;;;;;;;14.83;4.27;;;;;;;12.85;60.71;99211.19;5057415;28;20064;-70
2021/12/08 02:28:22;;;;;;;22.07;4.87;;;;;;;14.03;58.38;99209.97;5046007;28;20028;-71
2021/12/08 02:31:00;;;;;;;19.10;4.53;;;;;;;15.44;50.89;99203.47;5071990;28;20021;-71
2021/12/08 02:49:48;;;;;;;10.73;3.07;;;;;;;15.31;47.35;99197.19;5071846;28;20395;-71
2021/12/08 02:52:14;;;;;;;6.73;2.73;;;;;;;13.94;51.91;99213.06;5053008;28;20464;-71
2021/12/08 02:54:49;;;;;;;8.53;2.80;;;;;;;14.97;49.97;99204.28;5050887;28;20032;-71
2021/12/08 02:57:17;;;;;;;8.73;3.13;;;;;;;14.47;49.69;99218.31;5033774;28;20059;-71
2021/12/08 02:59:45;;;;;;;8.93;2.50;;;;;;;14.67;50.21;99205.00;5054779;28;20388;-71
2021/12/08 03:02:10;;;;;;;6.20;2.67;;;;;;;16.14;45.68;99201.31;5049174;28;20186;-71
2021/12/08 03:04:36;;;;;;;9.77;2.07;;;;;;;15.52;46.45;99208.28;5034997;28;20540;-72
2021/12/08 03:07:03;;;;;;;11.20;2.07;;;;;;;14.52;49.67;99234.69;5069781;28;20328;-71
2021/12/08 03:09:29;;;;;;;10.47;1.87;;;;;;;14.49;47.88;99217.28;5069138;28;20020;-72
2021/12/08 03:12:01;;;;;;;6.23;1.93;;;;;;;15.47;46.43;99223.50;5068321;28;20032;-71
2021/12/08 03:14:28;;;;;;;6.63;1.92;;;;;;;16.14;44.25;99227.66;5031971;28;20124;-71
2021/12/08 03:16:58;;;;;;;3.13;1.77;;;;;;;15.35;45.45;99230.28;5050743;28;20028;-71
2021/12/08 03:19:25;;;;;;;4.83;1.53;;;;;;;14.03;50.11;99228.38;5071174;28;20067;-71
2021/12/08 03:21:52;;;;;;;3.67;1.53;;;;;;;13.54;52.58;99215.84;5058373;28;20069;-71
2021/12/08 03:26:57;;;;;;;7.17;2.20;;;;;;;15.71;45.59;99216.00;5058797;28;20024;-71
2021/12/08 03:29:34;;;;;;;7.67;1.90;;;;;;;14.12;49.25;99220.97;5038071;28;20128;-71
2021/12/08 03:32:11;;;;;;;9.03;2.10;;;;;;;13.19;52.07;99218.34;5042810;28;20067;-70
2021/12/08 03:34:41;;;;;;;9.13;2.47;;;;;;;13.29;53.21;99221.38;5046046;28;20024;-71
2021/12/08 03:37:08;;;;;;;4.47;1.87;;;;;;;13.66;50.88;99224.91;5070336;28;20412;-71
2021/12/08 03:39:34;;;;;;;12.63;2.17;;;;;;;13.85;51.67;99218.78;5070147;28;20050;-71
2021/12/08 03:42:01;;;;;;;7.10;2.20;;;;;;;13.72;50.22;99227.28;5051931;28;20024;-71
2021/12/08 03:44:27;;;;;;;6.83;1.63;;;;;;;12.91;52.26;99239.72;5044133;28;20028;-71
2021/12/08 03:47:01;;;;;;;5.47;1.57;;;;;;;14.18;49.58;99223.28;5032006;28;20045;-71
2021/12/08 03:49:28;;;;;;;16.03;5.00;;;;;;;13.66;49.69;99240.69;5050033;28;20032;-71
2021/12/08 03:52:00;;;;;;;7.43;2.53;;;;;;;13.43;49.99;99238.31;5050335;28;20040;-71
2021/12/08 03:54:26;;;;;;;12.50;1.73;;;;;;;13.96;49.22;99248.00;5047059;28;20056;-71
2021/12/08 03:56:51;;;;;;;4.80;2.00;;;;;;;12.97;52.63;99257.84;5069894;28;20052;-72
2021/12/08 03:59:16;;;;;;;9.67;2.27;;;;;;;13.52;50.09;99269.38;5050747;28;20515;-71
2021/12/08 04:01:42;;;;;;;12.13;2.00;;;;;;;13.19;48.78;99269.97;5069987;28;20448;-71
2021/12/08 04:04:10;;;;;;;6.57;1.90;;;;;;;13.91;48.91;99273.63;5045647;28;20052;-71
2021/12/08 04:06:45;;;;;;;7.40;2.43;;;;;;;14.68;45.99;99272.44;5068424;28;20037;-71
2021/12/08 04:09:19;;;;;;;8.20;2.17;;;;;;;14.02;47.78;99279.19;5041270;28;20024;-71
2021/12/08 04:11:46;;;;;;;15.77;3.10;;;;;;;14.18;47.84;99270.59;5052258;28;20128;-71
2021/12/08 04:14:18;;;;;;;10.17;2.23;;;;;;;14.41;46.58;99254.50;5048627;28;20394;-71
2021/12/08 04:16:50;;;;;;;6.70;2.42;;;;;;;14.14;47.21;99261.16;5051380;28;20036;-71
2021/12/08 04:19:19;;;;;;;11.60;2.30;;;;;;;14.50;45.76;99253.16;5065294;28;20028;-71
2021/12/08 04:21:47;;;;;;;6.57;2.37;;;;;;;13.89;47.25;99262.38;5044657;28;20060;-71
2021/12/08 04:24:13;;;;;;;8.63;2.30;;;;;;;14.17;47.27;99261.00;5059275;28;20031;-71
2021/12/08 04:27:06;;;;;;;10.77;2.83;;;;;;;13.73;47.84;99263.06;5053421;28;20157;-71
2021/12/08 04:29:34;;;;;;;11.50;2.30;;;;;;;13.95;47.28;99266.47;5048761;28;20041;-72
2021/12/08 04:32:01;;;;;;;8.50;2.17;;;;;;;12.71;49.61;99267.69;5067086;28;20108;-71
2021/12/08 04:34:35;;;;;;;12.87;1.73;;;;;;;13.46;47.62;99275.72;5069796;28;20181;-71
2021/12/08 04:37:06;;;;;;;5.00;2.23;;;;;;;14.23;46.65;99274.69;5048592;28;20192;-71
2021/12/08 04:42:20;;;;;;;10.50;1.70;;;;;;;13.34;49.08;99298.13;5065155;28;20561;-71
2021/12/08 04:44:53;;;;;;;9.43;1.40;;;;;;;13.68;47.98;99312.34;5046455;28;20028;-71
2021/12/08 04:47:32;;;;;;;3.30;0.95;;;;;;;14.21;45.80;99289.66;5065475;28;20039;-72
2021/12/08 04:50:37;;;;;;;5.50;2.43;;;;;;;12.99;47.98;99297.94;5068700;28;20024;-71
2021/12/08 04:53:24;;;;;;;8.77;1.40;;;;;;;12.63;50.29;99311.75;5066357;28;20381;-71
2021/12/08 05:04:38;;;;;;;5.22;0.82;;;;;;;13.24;47.33;99278.47;5004280;28;20076;-71
2021/12/08 05:07:28;;;;;;;3.30;0.73;;;;;;;13.09;47.55;99290.50;5032000;28;20642;-72
2021/12/08 05:09:53;;;;;;;4.60;0.90;;;;;;;12.19;50.15;99301.34;5049557;28;20032;-71
2021/12/08 05:12:23;;;;;;;4.33;1.00;;;;;;;13.38;47.45;99304.97;5063428;28;20170;-71
2021/12/08 05:15:04;;;;;;;7.60;1.50;;;;;;;13.79;46.79;99301.31;5029463;28;20028;-71
2021/12/08 05:17:46;;;;;;;1.80;1.17;;;;;;;12.89;48.05;99304.53;5034874;28;20028;-71
2021/12/08 05:20:56;;;;;;;3.88;2.03;;;;;;;13.39;46.13;99306.69;5048738;28;20488;-72
2021/12/08 05:23:45;;;;;;;7.10;1.20;;;;;;;13.17;46.92;99303.28;5040156;28;20040;-71
2021/12/08 05:26:17;;;;;;;3.27;1.33;;;;;;;13.28;46.20;99310.69;5030680;28;20041;-71
2021/12/08 05:28:46;;;;;;;2.70;1.20;;;;;;;13.93;45.20;99316.44;5049236;28;20032;-71
2021/12/08 05:31:17;;;;;;;6.20;1.50;;;;;;;13.47;46.20;99316.81;5037218;28;20032;-71
2021/12/08 05:33:44;;;;;;;6.47;1.17;;;;;;;13.08;47.09;99312.44;5040325;28;20090;-71
2021/12/08 05:36:10;;;;;;;7.30;1.13;;;;;;;12.53;47.96;99331.41;5031910;28;20045;-71
2021/12/08 05:38:37;;;;;;;3.60;1.10;;;;;;;12.79;48.04;99324.19;5036426;28;20040;-71
2021/12/08 05:41:06;;;;;;;4.83;1.17;;;;;;;13.60;45.29;99330.25;5068245;28;20443;-72
2021/12/08 05:43:31;;;;;;;12.33;1.63;;;;;;;12.06;48.04;99348.13;5069676;28;20060;-71
2021/12/08 05:45:58;;;;;;;6.40;1.30;;;;;;;12.83;47.75;99338.88;5044133;28;20063;-72
2021/12/08 05:48:27;;;;;;;5.13;1.13;;;;;;;12.28;49.04;99342.91;5031600;28;20041;-71
2021/12/08 05:51:14;;;;;;;4.07;1.40;;;;;;;12.47;48.12;99342.13;5031102;28;20079;-71
2021/12/08 05:53:43;;;;;;;7.13;1.17;;;;;;;12.73;47.69;99328.78;5046592;28;20090;-72
2021/12/08 05:56:09;;;;;;;5.30;1.50;;;;;;;13.34;46.91;99340.13;5050273;28;20318;-72
2021/12/08 05:58:36;;;;;;;4.60;1.20;;;;;;;13.19;46.15;99353.94;5067816;28;20540;-71
2021/12/08 06:01:18;;;;;;;9.07;1.37;;;;;;;13.37;45.80;99350.50;5039886;28;20277;-71
2021/12/08 06:03:49;;;;;;;7.03;1.30;;;;;;;13.59;45.84;99349.53;5068137;28;20028;-71
2021/12/08 06:06:15;;;;;;;4.03;1.10;;;;;;;13.44;44.40;99355.50;5051072;28;20476;-71
2021/12/08 06:08:41;;;;;;;3.83;1.60;;;;;;;12.86;47.17;99360.56;5062715;28;20025;-71
2021/12/08 06:11:09;;;;;;;2.87;1.00;;;;;;;12.36;47.56;99361.78;5038023;28;20036;-71
2021/12/08 06:13:37;;;;;;;7.07;1.47;;;;;;;12.98;46.72;99348.72;5069256;28;20075;-71
2021/12/08 06:16:05;;;;;;;6.80;2.00;;;;;;;11.93;48.65;99363.44;5040615;28;20025;-71
2021/12/08 06:18:37;;;;;;;6.33;1.20;;;;;;;13.01;45.41;99356.44;5041329;28;20514;-71
2021/12/08 06:21:10;;;;;;;1.45;0.85;;;;;;;13.66;45.61;99361.44;5067389;28;20048;-71
2021/12/08 06:23:39;;;;;;;8.20;1.30;;;;;;;13.64;45.08;99371.19;5049252;28;20069;-72
2021/12/08 06:26:05;;;;;;;7.50;1.60;;;;;;;13.24;45.96;99375.56;5043551;28;20201;-72
2021/12/08 06:28:31;;;;;;;5.37;0.97;;;;;;;12.34;47.80;99384.56;5059971;28;20043;-71
2021/12/08 06:30:56;;;;;;;8.27;1.60;;;;;;;12.69;47.51;99378.78;5069446;28;20028;-72
2021/12/08 06:33:22;;;;;;;9.10;2.23;;;;;;;12.28;48.54;99395.31;5049968;28;20030;-71
2021/12/08 06:35:53;;;;;;;10.10;1.30;;;;;;;11.85;50.75;99386.47;5053337;28;20024;-72
2021/12/08 06:38:19;;;;;;;12.27;1.50;;;;;;;12.19;48.75;99390.41;5054042;28;20028;-71
2021/12/08 06:40:51;;;;;;;4.33;1.30;;;;;;;12.73;47.31;99386.47;5053294;28;20081;-71
2021/12/08 06:43:21;;;;;;;4.53;1.40;;;;;;;13.00;45.98;99378.34;5036723;28;20080;-72
2021/12/08 06:45:52;;;;;;;3.23;0.87;;;;;;;12.22;48.88;99380.66;5042208;28;20287;-71
2021/12/08 06:48:21;;;;;;;3.40;1.00;;;;;;;12.66;47.49;99385.00;5065604;28;20021;-72
2021/12/08 06:50:54;;;;;;;5.57;1.63;;;;;;;13.56;45.11;99386.44;5044337;28;20116;-72
2021/12/08 06:53:22;;;;;;;3.27;1.50;;;;;;;13.12;46.62;99386.59;5042658;28;20498;-72
2021/12/08 06:55:53;;;;;;;5.77;1.57;;;;;;;12.84;47.55;99403.50;5058830;28;20017;-72
2021/12/08 06:58:26;;;;;;;6.20;1.33;;;;;;;12.66;47.15;99400.72;5057489;28;20175;-72
2021/12/08 07:01:18;;;;;;;4.57;1.03;;;;;;;13.03;47.04;99408.81;5054417;28;20028;-72
2021/12/08 07:06:43;;;;;;;6.47;1.17;;;;;;;12.66;47.46;99403.34;5052558;28;20033;-72
2021/12/08 07:09:21;;;;;;;6.80;2.13;;;;;;;11.95;48.97;99414.03;5061070;28;20107;-72
2021/12/08 07:11:50;;;;;;;4.93;1.93;;;;;;;12.93;46.36;99413.63;5039017;28;20515;-72
2021/12/08 07:14:16;;;;;;;7.00;1.60;;;;;;;12.32;48.06;99420.47;5054448;28;20037;-71
2021/12/08 07:16:46;;;;;;;4.60;1.40;;;;;;;12.62;46.96;99414.88;5038884;28;20032;-71
2021/12/08 07:19:24;;;;;;;9.60;2.07;;;;;;;12.53;46.83;99425.75;5035115;28;20025;-71
2021/12/08 07:21:53;;;;;;;7.43;1.40;;;;;;;12.55;46.96;99422.13;5050463;28;20073;-72
2021/12/08 07:24:23;;;;;;;11.07;2.07;;;;;;;12.68;46.54;99421.63;5060175;28;20025;-71
2021/12/08 07:26:53;;;;;;;10.63;2.17;;;;;;;12.28;48.20;99434.59;5039866;28;20056;-73
2021/12/08 07:29:24;;;;;;;9.37;1.47;;;;;;;12.53;47.62;99428.38;5043090;28;21415;-71
2021/12/08 07:32:02;;;;;;;9.37;1.70;;;;;;;11.80;48.95;99430.28;5059736;28;20028;-72
2021/12/08 07:34:28;;;;;;;8.00;1.80;;;;;;;12.07;47.40;99430.19;5039134;28;20032;-72
2021/12/08 07:36:59;;;;;;;5.37;1.57;;;;;;;13.05;46.03;99436.69;5036271;28;20033;-72
2021/12/08 07:39:32;;;;;;;5.60;1.63;;;;;;;12.05;47.81;99446.81;5026727;28;20047;-72
2021/12/08 07:42:04;;;;;;;;;;;;;;;12.89;47.15;99438.25;5047928;28;20058;-71
2021/12/08 07:44:30;;;;;;;7.15;1.75;;;;;;;12.95;46.21;99438.00;5042923;28;20283;-71
2021/12/08 07:47:01;;;;;;;5.47;1.30;;;;;;;11.42;50.15;99440.41;5037767;28;20025;-71
2021/12/08 07:49:40;;;;;;;5.20;1.70;;;;;;;13.43;46.09;99443.03;5050363;28;20021;-71
2021/12/08 07:52:17;;;;;;;5.63;1.60;;;;;;;13.44;45.49;99442.94;5032345;28;20033;-71
2021/12/08 07:54:43;;;;;;;6.80;2.07;;;;;;;12.37;47.25;99442.06;5056406;28;20066;-71
2021/12/08 07:57:17;;;;;;;5.10;3.03;;;;;;;11.77;49.84;99440.88;5049397;28;20032;-71
2021/12/08 07:59:46;;;;;;;6.70;1.60;;;;;;;12.08;48.80;99445.84;5065823;28;20392;-72
2021/12/08 08:02:12;;;;;;;5.27;1.20;;;;;;;11.89;48.34;99445.66;5039178;28;20039;-72
2021/12/08 08:04:43;;;;;;;7.07;1.90;;;;;;;11.57;49.04;99437.22;5051184;28;20041;-72
2021/12/08 08:07:10;;;;;;;2.40;1.20;;;;;;;10.89;51.53;99436.94;5048192;28;20029;-72
2021/12/08 08:09:40;;;;;;;6.07;1.73;;;;;;;12.25;47.73;99437.31;5050261;28;20054;-72
2021/12/08 08:12:11;;;;;;;9.10;1.30;;;;;;;11.95;49.35;99437.59;5033398;28;20037;-72
2021/12/08 08:14:42;;;;;;;5.93;1.00;;;;;;;13.29;46.39;99441.81;5049646;28;20029;-72
2021/12/08 08:17:15;;;;;;;11.83;1.37;;;;;;;12.31;46.82;99442.34;5045544;28;20028;-72
2021/12/08 08:19:45;;;;;;;7.38;1.48;;;;;;;12.50;47.33;99433.72;5044345;28;20274;-72
2021/12/08 08:22:24;;;;;;;2.60;1.13;;;;;;;12.73;46.00;99433.66;5035515;28;20115;-71
2021/12/08 08:24:51;;;;;;;4.70;1.37;;;;;;;12.41;47.83;99436.72;5059948;28;20044;-71
2021/12/08 08:27:16;;;;;;;11.43;1.53;;;;;;;12.33;48.18;99431.78;5049559;28;20040;-72
2021/12/08 08:29:42;;;;;;;3.60;0.80;;;;;;;11.15;50.75;99437.84;5043756;28;20082;-73
2021/12/08 08:32:16;;;;;;;8.10;3.93;;;;;;;11.62;50.08;99440.53;5041424;28;20032;-71
2021/12/08 08:34:44;;;;;;;7.33;1.20;;;;;;;13.28;45.93;99440.09;5066685;28;20547;-72
2021/12/08 08:37:12;;;;;;;4.40;0.90;;;;;;;12.73;46.39;99448.53;5063355;28;20028;-72
2021/12/08 08:39:43;;;;;;;4.63;1.37;;;;;;;12.08;48.25;99445.00;5057907;28;20384;-71
2021/12/08 08:42:21;;;;;;;6.43;1.30;;;;;;;13.31;45.92;99450.47;5040211;28;20131;-72
2021/12/08 08:44:58;;;;;;;4.57;1.43;;;;;;;13.15;46.33;99454.69;5044209;28;20112;-72
2021/12/08 08:47:31;;;;;;;2.80;1.00;;;;;;;12.37;47.04;99468.28;5030384;28;20028;-72
2021/12/08 08:49:57;;;;;;;10.03;1.70;;;;;;;12.25;48.13;99463.50;5040030;28;20384;-72
2021/12/08 08:52:27;;;;;;;6.93;1.20;;;;;;;12.97;47.13;99467.66;5066198;28;20033;-72
2021/12/08 08:54:56;;;;;;;8.93;1.90;;;;;;;12.22;48.11;99463.63;5063646;28;20036;-72
2021/12/08 08:57:27;;;;;;;4.60;1.00;;;;;;;11.84;47.88;99468.53;5038611;28;20040;-72
2021/12/08 09:00:05;;;;;;;4.67;1.23;;;;;;;12.79;46.66;99478.88;5048741;28;20488;-72
2021/12/08 09:02:37;;;;;;;4.97;1.47;;;;;;;13.03;46.74;99471.78;5047056;28;20450;-72
2021/12/08 09:05:14;;;;;;;6.88;1.25;;;;;;;13.65;45.41;99475.25;5044026;28;20115;-72
2021/12/08 09:07:43;;;;;;;6.70;1.67;;;;;;;13.44;44.72;99491.97;5061119;28;20583;-72
2021/12/08 09:10:16;;;;;;;6.43;1.53;;;;;;;13.60;45.34;99484.25;5038750;28;20036;-72
2021/12/08 09:12:48;;;;;;;5.33;1.47;;;;;;;12.39;47.52;99495.28;5049604;28;20501;-72
2021/12/08 09:15:26;;;;;;;5.25;1.88;;;;;;;13.25;45.39;99482.22;5065401;28;20041;-72
2021/12/08 09:18:03;;;;;;;10.53;1.53;;;;;;;13.64;44.99;99484.09;5047006;28;20446;-72
2021/12/08 09:20:58;;;;;;;6.27;1.40;;;;;;;13.54;45.24;99482.75;5051992;28;20094;-73
2021/12/08 09:23:27;;;;;;;5.63;1.27;;;;;;;13.70;44.34;99481.16;5044962;28;20025;-73
2021/12/08 09:26:10;;;;;;;10.10;1.67;;;;;;;14.13;44.34;99485.41;5036384;28;20033;-72
2021/12/08 09:28:53;;;;;;;3.63;1.83;;;;;;;13.59;44.60;99488.69;5032669;28;20037;-73
2021/12/08 09:31:25;;;;;;;2.33;1.20;;;;;;;14.41;43.46;99485.81;5023548;28;20032;-72
2021/12/08 09:34:03;;;;;;;5.95;1.25;;;;;;;14.17;43.60;99481.72;5021522;28;20552;-71
2021/12/08 09:36:39;;;;;;;8.57;1.40;;;;;;;14.62;43.45;99488.34;5029001;28;20071;-72
2021/12/08 09:39:34;;;;;;;2.23;1.37;;;;;;;13.74;44.50;99480.13;5038669;28;20033;-72
2021/12/08 09:42:24;;;;;;;4.23;1.40;;;;;;;13.08;45.94;99496.06;5035614;28;20432;-72
2021/12/08 09:44:54;;;;;;;4.47;1.17;;;;;;;12.86;47.26;99501.34;5011705;28;20037;-72
2021/12/08 09:47:20;;;;;;;5.73;1.57;;;;;;;12.81;47.29;99503.28;5014332;28;20049;-72
2021/12/08 09:49:49;;;;;;;2.97;1.23;;;;;;;12.76;46.36;99515.72;5020036;28;20473;-72
2021/12/08 09:52:19;;;;;;;4.47;1.20;;;;;;;12.58;46.74;99519.94;5037470;28;20017;-72
2021/12/08 09:54:48;;;;;;;1.87;1.10;;;;;;;13.58;44.89;99518.47;5018569;28;20083;-72
2021/12/08 09:57:15;;;;;;;4.10;1.40;;;;;;;13.31;44.88;99530.97;5021865;28;20037;-72
2021/12/08 09:59:46;;;;;;;5.90;1.63;;;;;;;13.57;45.36;99524.63;5035998;28;20025;-72
2021/12/08 10:02:31;;;;;;;4.17;1.40;;;;;;;13.29;45.87;99531.03;5044680;28;20395;-72
2021/12/08 10:05:09;;;;;;;3.37;1.40;;;;;;;14.11;44.60;99529.28;5045057;28;20024;-72
2021/12/08 10:07:35;;;;;;;5.80;1.93;;;;;;;13.46;45.52;99532.13;5023048;28;20025;-72
2021/12/08 10:10:02;;;;;;;3.10;1.30;;;;;;;13.79;44.88;99535.03;5042011;28;20059;-72
2021/12/08 10:12:28;;;;;;;3.83;1.53;;;;;;;14.17;43.23;99537.75;5033650;28;20025;-72
2021/12/08 10:14:53;;;;;;;3.93;1.77;;;;;;;13.85;43.57;99536.56;5021040;28;20032;-72
2021/12/08 10:17:20;;;;;;;4.13;1.57;;;;;;;14.61;42.39;99538.41;5036607;28;20029;-73
2021/12/08 10:20:14;;;;;;;3.00;1.17;;;;;;;13.22;45.84;99564.53;5039775;28;20444;-73
2021/12/08 10:22:42;;;;;;;2.30;1.47;;;;;;;13.81;44.86;99553.38;5069417;28;20107;-72
2021/12/08 10:25:16;;;;;;;3.37;1.40;;;;;;;14.89;41.96;99553.72;4980234;28;20040;-73
2021/12/08 10:28:07;;;;;;;7.30;1.70;;;;;;;14.94;42.47;99541.22;5052484;28;20025;-72
2021/12/08 10:31:04;;;;;;;18.10;5.63;;;;;;;13.92;44.56;99535.38;5047223;28;20028;-72
2021/12/08 10:33:45;;;;;;;8.00;1.73;;;;;;;14.35;43.59;99538.66;5054147;28;20056;-71
2021/12/08 10:36:23;;;;;;;4.57;1.50;;;;;;;13.28;45.00;99544.22;5044642;28;20111;-72
2021/12/08 10:38:48;;;;;;;3.43;1.40;;;;;;;13.10;45.08;99540.59;5049575;28;20473;-72
2021/12/08 10:41:14;;;;;;;5.00;1.33;;;;;;;13.73;44.32;99541.41;5040507;28;20060;-72
2021/12/08 10:43:39;;;;;;;2.60;1.17;;;;;;;14.33;42.88;99540.53;5056808;28;20047;-71
2021/12/08 10:46:07;;;;;;;2.10;1.20;;;;;;;13.52;43.80;99542.38;5062334;28;20115;-71
2021/12/08 10:48:37;;;;;;;7.53;2.07;;;;;;;13.68;43.97;99547.81;5041992;28;20017;-72
2021/12/08 10:56:42;;;;;;;5.63;1.10;;;;;;;12.76;46.24;99552.41;5060975;28;20561;-71
2021/12/08 10:59:07;;;;;;;2.90;1.10;;;;;;;14.05;43.58;99540.91;5050212;28;20123;-72
2021/12/08 11:01:34;;;;;;;6.77;1.60;;;;;;;13.77;44.48;99536.91;5040637;28;20021;-73
2021/12/08 11:04:04;;;;;;;2.47;1.10;;;;;;;14.02;43.83;99536.66;5039997;28;20025;-72
2021/12/08 11:06:36;;;;;;;10.83;1.40;;;;;;;14.51;42.41;99537.97;5053816;28;20017;-72
2021/12/08 11:09:05;;;;;;;4.10;1.43;;;;;;;14.94;41.84;99546.47;5057643;28;20442;-72
2021/12/08 11:11:32;;;;;;;4.40;1.90;;;;;;;13.73;44.22;99545.84;5044886;28;20033;-72
2021/12/08 11:14:01;;;;;;;6.70;1.93;;;;;;;12.97;45.25;99545.47;5050047;28;20031;-71
2021/12/08 11:16:36;;;;;;;6.37;1.80;;;;;;;13.79;44.29;99540.28;5044311;28;20021;-72
2021/12/08 11:19:09;;;;;;;3.73;1.43;;;;;;;13.71;44.35;99543.28;5055095;28;20047;-72
2021/12/08 11:21:40;;;;;;;8.52;2.88;;;;;;;13.04;45.02;99547.78;5042540;28;20044;-72
2021/12/08 11:24:35;;;;;;;5.33;1.63;;;;;;;13.16;45.21;99530.69;5034386;28;20094;-72
2021/12/08 11:27:04;;;;;;;5.00;1.77;;;;;;;13.40;44.66;99528.81;5044922;28;20082;-72
2021/12/08 11:29:34;;;;;;;6.07;1.73;;;;;;;14.16;43.61;99537.81;5041091;28;20048;-72
2021/12/08 11:32:05;;;;;;;5.10;2.27;;;;;;;13.80;43.99;99531.50;5052133;28;20024;-72
2021/12/08 11:34:38;;;;;;;3.67;2.20;;;;;;;14.27;43.32;99535.53;5059159;28;20119;-72
2021/12/08 11:37:08;;;;;;;9.97;2.10;;;;;;;14.70;41.93;99544.09;5037756;28;20538;-72
2021/12/08 11:39:36;;;;;;;4.57;2.50;;;;;;;13.11;45.08;99547.56;5049179;28;20028;-71
2021/12/08 11:42:12;;;;;;;5.40;2.67;;;;;;;14.41;42.56;99543.66;5043855;28;20048;-71
2021/12/08 11:44:40;;;;;;;4.50;2.20;;;;;;;13.80;43.25;99551.69;5045727;28;20115;-72
2021/12/08 11:47:09;;;;;;;7.77;2.57;;;;;;;14.67;42.43;99560.03;5056029;28;20404;-72
2021/12/08 11:49:41;;;;;;;5.13;2.03;;;;;;;13.86;44.51;99561.91;5033782;28;20401;-72
2021/12/08 11:52:13;;;;;;;8.30;1.98;;;;;;;15.12;41.39;99559.66;5032671;28;20490;-71
2021/12/08 11:54:56;;;;;;;7.70;2.23;;;;;;;14.26;42.99;99554.88;5039573;28;20028;-72
2021/12/08 11:57:28;;;;;;;4.80;2.00;;;;;;;14.02;42.95;99573.44;5073314;28;20099;-72
2021/12/08 12:00:01;;;;;;;3.50;1.83;;;;;;;15.12;41.39;99564.94;5037115;28;20436;-71
2021/12/08 12:02:42;;;;;;;8.33;2.43;;;;;;;16.13;39.99;99552.78;5039866;28;20036;-71
2021/12/08 12:05:11;;;;;;;5.70;2.77;;;;;;;15.32;41.12;99567.44;5044528;28;20028;-71
2021/12/08 12:07:38;;;;;;;5.87;2.50;;;;;;;13.84;42.47;99579.50;5051029;28;20029;-71
2021/12/08 12:10:05;;;;;;;8.93;2.93;;;;;;;15.25;40.77;99577.41;5052496;28;20036;-72
2021/12/08 12:12:31;;;;;;;11.67;2.43;;;;;;;14.64;42.13;99580.34;5034908;28;20077;-71
2021/12/08 12:14:56;;;;;;;4.60;2.43;;;;;;;14.56;41.58;99578.03;5036984;28;20431;-72
2021/12/08 12:17:21;;;;;;;7.67;2.70;;;;;;;15.70;39.56;99575.19;5053096;28;20898;-72
2021/12/08 12:20:02;;;;;;;5.20;2.03;;;;;;;14.45;42.91;99575.91;5055251;28;20057;-71
2021/12/08 12:22:32;;;;;;;6.10;3.03;;;;;;;14.45;42.47;99577.69;5046385;28;20115;-72
2021/12/08 12:25:13;;;;;;;6.63;3.10;;;;;;;15.38;40.86;99572.38;5056146;28;20028;-71
2021/12/08 12:28:00;;;;;;;9.73;3.03;;;;;;;16.38;39.11;99571.63;5048832;28;20021;-72
2021/12/08 12:30:47;;;;;;;4.33;2.30;;;;;;;14.96;41.13;99576.19;5061364;28;20025;-72
2021/12/08 12:33:18;;;;;;;4.87;2.10;;;;;;;14.78;41.15;99590.22;5041309;28;20106;-72